Time;durP1;ratioP1;P1;durP2;ratioP2;P2;SDS_P1;SDS_P2;PMS_P1;PMS_P2;Temp;Humidity;BMP_temperature;BMP_pressure;BME280_temperature;BME280_humidity;BME280_pressure;Samples;Min_cycle;Max_cycle;Signal;HPM_P1;HPM_P2
2022/02/13 00:01:18;;;;;;;6.18;1.65;;;1.40;99.90;;;;;;6145707;23;20014;-75
2022/02/13 00:03:44;;;;;;;6.32;1.13;;;1.40;99.90;;;;;;6121271;23;20051;-76
2022/02/13 00:06:09;;;;;;;3.70;1.40;;;1.40;99.90;;;;;;6121285;23;20022;-74
2022/02/13 00:08:35;;;;;;;4.70;0.80;;;1.30;99.90;;;;;;6145374;23;20021;-74
2022/02/13 00:11:01;;;;;;;3.25;0.80;;;1.40;99.90;;;;;;6147089;23;20009;-76
2022/02/13 00:13:26;;;;;;;4.50;1.08;;;1.30;99.90;;;;;;6121287;23;20498;-77
2022/02/13 00:15:52;;;;;;;4.15;1.13;;;1.30;99.90;;;;;;6145167;23;20009;-76
2022/02/13 00:18:19;;;;;;;3.58;0.77;;;1.20;99.90;;;;;;6146244;23;20036;-76
2022/02/13 00:20:44;;;;;;;5.88;1.42;;;1.30;99.90;;;;;;6145692;23;20505;-78
2022/02/13 00:23:10;;;;;;;4.60;0.80;;;1.20;99.90;;;;;;6146324;23;20053;-76
2022/02/13 00:25:35;;;;;;;3.15;0.63;;;1.00;99.90;;;;;;6121761;23;20005;-75
2022/02/13 00:28:01;;;;;;;2.30;0.70;;;1.10;99.90;;;;;;6145855;23;20021;-75
2022/02/13 00:30:28;;;;;;;3.33;0.63;;;1.10;99.90;;;;;;6145929;23;20013;-75
2022/02/13 00:32:56;;;;;;;5.20;0.85;;;1.00;99.90;;;;;;6145413;23;20462;-74
2022/02/13 00:35:22;;;;;;;2.83;0.80;;;1.00;99.90;;;;;;6147912;23;20029;-74
2022/02/13 00:37:47;;;;;;;4.93;1.75;;;1.00;99.90;;;;;;6120728;23;20021;-74
2022/02/13 00:40:13;;;;;;;4.30;0.93;;;1.00;99.90;;;;;;6145724;23;20072;-74
2022/02/13 00:42:39;;;;;;;3.15;0.77;;;1.00;99.90;;;;;;6144906;23;20013;-74
2022/02/13 00:45:05;;;;;;;3.80;0.70;;;1.00;99.90;;;;;;6145128;23;20028;-78
2022/02/13 00:47:31;;;;;;;2.00;0.70;;;0.90;99.90;;;;;;6145012;23;20024;-75
2022/02/13 00:49:57;;;;;;;4.57;0.70;;;0.80;99.90;;;;;;6120865;23;20014;-74
2022/02/13 00:52:22;;;;;;;3.63;0.90;;;0.80;99.90;;;;;;6121045;23;20490;-73
2022/02/13 00:54:48;;;;;;;4.50;0.75;;;0.80;99.90;;;;;;6145082;23;20520;-75
2022/02/13 00:57:13;;;;;;;7.07;1.10;;;0.80;99.90;;;;;;6145452;23;20510;-75
2022/02/13 00:59:39;;;;;;;5.90;0.90;;;0.80;99.90;;;;;;6146722;23;20193;-74
2022/02/13 01:02:05;;;;;;;2.63;0.68;;;0.80;99.90;;;;;;6146285;23;20327;-78
2022/02/13 01:04:30;;;;;;;2.20;0.85;;;0.70;99.90;;;;;;6147646;23;20013;-78
2022/02/13 01:06:57;;;;;;;6.13;1.50;;;0.80;99.90;;;;;;6146731;23;20505;-77
2022/02/13 01:09:23;;;;;;;7.72;1.10;;;0.70;99.90;;;;;;6146398;23;20092;-76
2022/02/13 01:11:48;;;;;;;3.90;0.90;;;0.60;99.90;;;;;;6145736;23;20009;-79
2022/02/13 01:14:14;;;;;;;3.83;1.00;;;0.70;99.90;;;;;;6122944;23;20570;-82
2022/02/13 01:16:40;;;;;;;3.90;0.90;;;0.60;99.90;;;;;;6148954;23;20477;-75
2022/02/13 01:19:07;;;;;;;3.90;1.10;;;0.60;99.90;;;;;;6123892;23;20010;-78
2022/02/13 01:21:32;;;;;;;4.60;1.20;;;0.70;99.90;;;;;;6147372;23;20020;-79
2022/02/13 01:23:59;;;;;;;3.22;0.85;;;0.70;99.90;;;;;;6123590;23;20017;-75
2022/02/13 01:26:24;;;;;;;4.78;1.40;;;0.60;99.90;;;;;;6147547;23;20020;-74
2022/02/13 01:28:51;;;;;;;6.22;1.48;;;0.70;99.90;;;;;;6148134;23;20344;-75
2022/02/13 01:31:16;;;;;;;4.55;1.20;;;0.60;99.90;;;;;;6147983;23;20088;-75
2022/02/13 01:33:42;;;;;;;2.85;1.20;;;0.60;99.90;;;;;;6147641;23;20017;-77
2022/02/13 01:36:08;;;;;;;3.50;0.93;;;0.50;99.90;;;;;;6123069;23;20009;-76
2022/02/13 01:38:35;;;;;;;5.80;1.67;;;0.60;99.90;;;;;;6147094;23;20010;-77
2022/02/13 01:41:00;;;;;;;9.80;2.15;;;0.60;99.90;;;;;;6122417;23;20014;-73
2022/02/13 01:43:27;;;;;;;6.47;1.40;;;0.50;99.90;;;;;;6146471;23;20097;-74
2022/02/13 01:45:53;;;;;;;6.32;1.35;;;0.50;99.90;;;;;;6146913;23;20025;-74
2022/02/13 01:48:19;;;;;;;4.82;1.23;;;0.50;99.90;;;;;;6146875;23;20028;-73
2022/02/13 01:50:47;;;;;;;3.25;1.27;;;0.50;99.90;;;;;;6146283;23;20438;-74
2022/02/13 01:53:13;;;;;;;5.80;0.98;;;0.50;99.90;;;;;;6122274;23;20033;-74
2022/02/13 01:55:39;;;;;;;3.47;0.90;;;0.50;99.90;;;;;;6146159;23;20009;-73
2022/02/13 01:58:05;;;;;;;6.25;1.60;;;0.40;99.90;;;;;;6121737;23;20013;-73
2022/02/13 02:00:31;;;;;;;4.50;1.52;;;0.50;99.90;;;;;;6122040;23;20488;-74
2022/02/13 02:02:56;;;;;;;6.78;1.35;;;0.40;99.90;;;;;;6148561;23;20104;-76
2022/02/13 02:05:22;;;;;;;4.10;1.42;;;0.40;99.90;;;;;;6121684;23;20088;-74
2022/02/13 02:07:48;;;;;;;3.00;0.90;;;0.50;99.90;;;;;;6145946;23;20068;-73
2022/02/13 02:10:20;;;;;;;5.05;1.40;;;0.50;99.90;;;;;;6122357;23;20016;-75
2022/02/13 02:12:46;;;;;;;4.13;0.80;;;0.50;99.90;;;;;;6147243;23;20072;-76
2022/02/13 02:15:11;;;;;;;2.80;0.90;;;0.50;99.90;;;;;;6121488;23;20009;-75
2022/02/13 02:17:37;;;;;;;3.70;1.45;;;0.50;99.90;;;;;;6145946;23;20014;-76
2022/02/13 02:20:03;;;;;;;5.22;1.60;;;0.60;99.90;;;;;;6122737;23;20006;-74
2022/02/13 02:22:29;;;;;;;4.63;1.45;;;0.40;99.90;;;;;;6121592;23;20018;-75
2022/02/13 02:24:54;;;;;;;5.82;1.30;;;0.60;99.90;;;;;;6121510;23;20033;-74
2022/02/13 02:27:20;;;;;;;3.85;1.50;;;0.60;99.90;;;;;;6121480;23;20026;-74
2022/02/13 02:29:45;;;;;;;4.47;1.80;;;0.60;99.90;;;;;;6145726;23;20009;-74
2022/02/13 02:32:11;;;;;;;6.95;2.17;;;0.60;99.90;;;;;;6148740;23;20065;-76
2022/02/13 02:34:41;;;;;;;5.03;1.85;;;0.60;99.90;;;;;;6146998;23;20089;-76
2022/02/13 02:37:08;;;;;;;6.25;1.90;;;0.60;99.90;;;;;;6146807;23;20005;-74
2022/02/13 02:39:34;;;;;;;6.88;1.88;;;0.60;99.90;;;;;;6145862;23;20013;-74
2022/02/13 02:42:00;;;;;;;5.88;1.77;;;0.60;99.90;;;;;;6121397;23;20028;-76
2022/02/13 02:44:26;;;;;;;5.05;1.40;;;0.60;99.90;;;;;;6146295;23;20013;-76
2022/02/13 02:46:52;;;;;;;6.25;2.10;;;0.50;99.90;;;;;;6122012;23;20006;-81
2022/02/13 02:49:17;;;;;;;5.10;1.48;;;0.60;99.90;;;;;;6147277;23;20009;-80
2022/02/13 02:51:43;;;;;;;4.85;1.95;;;0.50;99.90;;;;;;6146853;23;20423;-76
2022/02/13 02:54:09;;;;;;;5.85;2.25;;;0.60;99.90;;;;;;6122019;23;20017;-79
2022/02/13 02:56:35;;;;;;;4.03;1.30;;;0.60;99.90;;;;;;6145696;23;20016;-76
2022/02/13 02:59:01;;;;;;;4.60;1.65;;;0.50;99.90;;;;;;6122332;23;20021;-77
2022/02/13 03:01:26;;;;;;;3.95;1.30;;;0.60;99.90;;;;;;6122233;23;20385;-76
2022/02/13 03:03:52;;;;;;;4.18;1.40;;;0.40;99.90;;;;;;6122109;23;20014;-74
2022/02/13 03:06:17;;;;;;;4.07;0.90;;;0.40;99.90;;;;;;6147218;23;20406;-79
2022/02/13 03:08:43;;;;;;;5.13;1.70;;;0.40;99.90;;;;;;6121938;23;20052;-75
2022/02/13 03:11:09;;;;;;;5.95;1.30;;;0.40;99.90;;;;;;6121260;23;20017;-77
2022/02/13 03:13:35;;;;;;;8.18;2.15;;;0.50;99.90;;;;;;6122114;23;20015;-75
2022/02/13 03:16:01;;;;;;;5.25;1.45;;;0.50;99.90;;;;;;6121703;23;20096;-74
2022/02/13 03:18:30;;;;;;;3.53;1.05;;;0.40;99.90;;;;;;6147956;23;20133;-78
2022/02/13 03:20:56;;;;;;;6.68;1.98;;;0.30;99.90;;;;;;6147516;23;20327;-77
2022/02/13 03:23:22;;;;;;;5.82;2.03;;;0.40;99.90;;;;;;6146365;23;20025;-77
2022/02/13 03:25:47;;;;;;;3.35;1.35;;;0.30;99.90;;;;;;6147711;23;20017;-77
2022/02/13 03:28:14;;;;;;;3.80;0.93;;;0.30;99.90;;;;;;6146188;23;20032;-75
2022/02/13 03:30:40;;;;;;;3.78;1.10;;;0.20;99.90;;;;;;6145544;23;20018;-75
2022/02/13 03:33:06;;;;;;;4.90;1.63;;;0.30;99.90;;;;;;6146388;23;20323;-75
2022/02/13 03:35:32;;;;;;;5.43;1.67;;;0.20;99.90;;;;;;6145490;23;20029;-77
2022/02/13 03:37:58;;;;;;;3.88;1.33;;;0.30;99.90;;;;;;6147671;23;20558;-75
2022/02/13 03:40:23;;;;;;;4.05;1.65;;;0.30;99.90;;;;;;6121158;23;20033;-73
2022/02/13 03:42:49;;;;;;;4.35;1.77;;;0.30;99.90;;;;;;6145806;23;20021;-74
2022/02/13 03:45:15;;;;;;;3.08;1.17;;;0.20;99.90;;;;;;6121399;23;20013;-74
2022/02/13 03:47:41;;;;;;;4.78;1.83;;;0.20;99.90;;;;;;6146945;23;20100;-74
2022/02/13 03:50:07;;;;;;;5.05;1.70;;;0.30;99.90;;;;;;6146079;23;20014;-74
2022/02/13 03:52:33;;;;;;;6.60;1.55;;;0.30;99.90;;;;;;6145031;23;20011;-73
2022/02/13 03:55:00;;;;;;;4.38;1.83;;;0.30;99.90;;;;;;6145186;23;20006;-74
2022/02/13 03:57:29;;;;;;;4.55;2.20;;;0.20;99.90;;;;;;6145563;23;20020;-73
2022/02/13 03:59:57;;;;;;;4.70;2.20;;;0.40;99.90;;;;;;6146334;23;20016;-74
2022/02/13 04:02:23;;;;;;;10.88;2.25;;;0.50;99.90;;;;;;6145915;23;20016;-73
2022/02/13 04:04:50;;;;;;;4.32;2.05;;;0.40;99.90;;;;;;6120892;23;20006;-75
2022/02/13 04:07:16;;;;;;;6.43;2.00;;;0.40;99.90;;;;;;6120743;23;20044;-75
2022/02/13 04:09:42;;;;;;;4.85;1.98;;;0.40;99.90;;;;;;6121132;23;20092;-83
2022/02/13 04:12:08;;;;;;;3.50;1.65;;;0.40;99.90;;;;;;6122238;23;20009;-76
2022/02/13 04:14:33;;;;;;;5.22;1.80;;;0.40;99.90;;;;;;6121563;23;20020;-82
2022/02/13 04:17:01;;;;;;;4.13;1.58;;;0.40;99.90;;;;;;6146331;23;20009;-76
2022/02/13 04:19:27;;;;;;;4.13;1.75;;;0.30;99.90;;;;;;6121385;23;20409;-80
2022/02/13 04:21:53;;;;;;;3.88;1.58;;;0.30;99.90;;;;;;6121450;23;20042;-81
2022/02/13 04:24:18;;;;;;;3.53;1.45;;;0.20;99.90;;;;;;6146315;23;20021;-77
2022/02/13 04:26:45;;;;;;;5.47;1.83;;;0.20;99.90;;;;;;6146247;23;20443;-77
2022/02/13 04:29:11;;;;;;;9.35;2.50;;;0.20;99.90;;;;;;6121132;23;20217;-78
2022/02/13 04:31:37;;;;;;;6.20;2.05;;;0.20;99.90;;;;;;6121488;23;20020;-76
2022/02/13 04:34:07;;;;;;;3.65;1.65;;;0.20;99.90;;;;;;6146075;23;20013;-76
2022/02/13 04:36:36;;;;;;;6.53;1.88;;;0.10;99.90;;;;;;6145695;23;20110;-75
2022/02/13 04:39:04;;;;;;;3.47;1.23;;;0.10;99.90;;;;;;6121559;23;20006;-77
2022/02/13 04:41:29;;;;;;;5.20;2.00;;;0.10;99.90;;;;;;6145003;23;20017;-74
2022/02/13 04:43:55;;;;;;;3.75;1.25;;;0.10;99.90;;;;;;6121003;23;20014;-73
2022/02/13 04:46:20;;;;;;;3.25;1.20;;;0.10;99.90;;;;;;6145933;23;20334;-73
2022/02/13 04:48:46;;;;;;;4.30;1.45;;;0.00;99.90;;;;;;6147693;23;20017;-73
2022/02/13 04:51:11;;;;;;;5.85;1.60;;;0.10;99.90;;;;;;6122245;23;20077;-73
2022/02/13 04:53:37;;;;;;;5.63;1.40;;;0.10;99.90;;;;;;6147077;23;20013;-73
2022/02/13 04:56:04;;;;;;;5.30;1.83;;;0.00;99.90;;;;;;6147691;23;20431;-74
2022/02/13 04:58:31;;;;;;;5.63;1.45;;;0.00;99.90;;;;;;6122238;23;20354;-74
2022/02/13 05:00:57;;;;;;;3.83;1.20;;;0.00;99.90;;;;;;6147727;23;20021;-74
2022/02/13 05:03:24;;;;;;;3.10;0.90;;;-0.10;99.90;;;;;;6122908;23;20005;-74
2022/02/13 05:05:51;;;;;;;2.63;0.90;;;-0.10;99.90;;;;;;6121962;23;20024;-73
2022/02/13 05:08:17;;;;;;;2.75;1.08;;;-0.10;99.90;;;;;;6149306;23;20030;-73
2022/02/13 05:10:43;;;;;;;4.20;1.20;;;0.00;99.90;;;;;;6147163;23;20060;-73
2022/02/13 05:13:09;;;;;;;5.80;1.40;;;0.00;99.90;;;;;;6149072;23;20020;-73
2022/02/13 05:15:34;;;;;;;4.05;1.45;;;0.00;99.90;;;;;;6148477;23;20060;-74
2022/02/13 05:18:00;;;;;;;5.45;1.02;;;-0.10;99.90;;;;;;6122480;23;20446;-73
2022/02/13 05:20:26;;;;;;;5.93;1.25;;;-0.10;99.90;;;;;;6121432;23;20008;-74
2022/02/13 05:22:52;;;;;;;4.63;0.80;;;-0.10;99.90;;;;;;6147018;23;20346;-73
2022/02/13 05:25:18;;;;;;;3.28;0.80;;;-0.10;99.90;;;;;;6148544;23;20041;-73
2022/02/13 05:27:44;;;;;;;3.90;1.17;;;-0.20;99.90;;;;;;6097533;23;20021;-73
2022/02/13 05:30:10;;;;;;;4.20;1.23;;;0.00;99.90;;;;;;6098265;23;20020;-74
2022/02/13 05:32:36;;;;;;;6.00;1.15;;;-0.10;99.90;;;;;;6098024;23;20507;-76
2022/02/13 05:35:02;;;;;;;4.10;1.38;;;-0.10;99.90;;;;;;6121760;23;20009;-74
2022/02/13 05:37:30;;;;;;;4.32;1.30;;;-0.10;99.90;;;;;;6148410;23;20009;-73
2022/02/13 05:39:56;;;;;;;4.93;1.77;;;-0.10;99.90;;;;;;6122240;23;20010;-74
2022/02/13 05:42:23;;;;;;;3.05;1.00;;;-0.10;99.90;;;;;;6098280;23;20013;-74
2022/02/13 05:44:50;;;;;;;5.43;1.20;;;-0.20;99.90;;;;;;6097571;23;20013;-74
2022/02/13 05:47:16;;;;;;;3.03;1.10;;;-0.10;99.90;;;;;;6122285;23;20064;-77
2022/02/13 05:49:41;;;;;;;4.13;1.60;;;-0.10;99.90;;;;;;6148272;23;20443;-79
2022/02/13 05:52:07;;;;;;;3.97;1.73;;;0.00;99.90;;;;;;6122849;23;20324;-74
2022/02/13 05:54:33;;;;;;;2.80;1.27;;;-0.10;99.90;;;;;;6097679;23;20017;-73
2022/02/13 05:56:58;;;;;;;4.88;1.20;;;-0.10;99.90;;;;;;6097958;23;20002;-75
2022/02/13 05:59:24;;;;;;;4.55;1.38;;;0.00;99.90;;;;;;6147804;23;20056;-74
2022/02/13 06:01:53;;;;;;;3.28;1.17;;;0.00;99.90;;;;;;6126481;23;20141;-77
2022/02/13 06:04:18;;;;;;;3.45;1.40;;;0.00;99.90;;;;;;6147957;23;20013;-76
2022/02/13 06:06:44;;;;;;;4.43;1.35;;;0.00;99.90;;;;;;6097623;23;20021;-76
2022/02/13 06:09:09;;;;;;;2.90;1.10;;;-0.10;99.90;;;;;;6147897;23;20013;-74
2022/02/13 06:11:35;;;;;;;4.03;0.95;;;-0.10;99.90;;;;;;6097628;23;20006;-73
2022/02/13 06:14:01;;;;;;;4.43;1.63;;;0.00;99.90;;;;;;6122073;23;20005;-76
2022/02/13 06:16:26;;;;;;;3.67;1.02;;;0.10;99.90;;;;;;6122378;23;20021;-74
2022/02/13 06:18:52;;;;;;;2.72;1.10;;;0.00;99.90;;;;;;6147614;23;20055;-74
2022/02/13 06:21:20;;;;;;;3.17;1.25;;;0.00;99.90;;;;;;6122590;23;20470;-78
2022/02/13 06:23:46;;;;;;;3.13;1.02;;;0.00;99.90;;;;;;6131811;23;20543;-77
2022/02/13 06:26:13;;;;;;;2.88;1.20;;;0.10;99.90;;;;;;6122208;23;20005;-78
2022/02/13 06:28:39;;;;;;;3.83;1.17;;;0.10;99.90;;;;;;6121622;23;20028;-73
2022/02/13 06:31:05;;;;;;;3.60;1.30;;;0.10;99.90;;;;;;6145894;23;20430;-74
2022/02/13 06:33:31;;;;;;;3.15;0.90;;;0.10;99.90;;;;;;6146771;23;20041;-73
2022/02/13 06:35:56;;;;;;;4.65;1.38;;;0.10;99.90;;;;;;6121374;23;20088;-75
2022/02/13 06:38:22;;;;;;;3.83;1.15;;;0.20;99.90;;;;;;6145821;23;20013;-74
2022/02/13 06:40:48;;;;;;;4.30;1.30;;;0.20;99.90;;;;;;6120757;23;20391;-74
2022/02/13 06:43:13;;;;;;;3.53;1.10;;;0.30;99.90;;;;;;6145716;23;20181;-73
2022/02/13 06:45:41;;;;;;;4.85;2.00;;;0.20;99.90;;;;;;6145202;23;20442;-73
2022/02/13 06:48:08;;;;;;;5.43;1.55;;;0.40;99.90;;;;;;6142384;23;20022;-74
2022/02/13 06:50:33;;;;;;;5.30;1.52;;;0.30;99.90;;;;;;6120960;23;20503;-73
2022/02/13 06:52:59;;;;;;;5.15;1.88;;;0.50;99.90;;;;;;6147038;23;20041;-73
2022/02/13 06:55:24;;;;;;;4.25;2.03;;;0.50;99.90;;;;;;6121402;23;20031;-73
2022/02/13 06:57:51;;;;;;;4.78;1.90;;;0.50;99.90;;;;;;6144287;23;20104;-74
2022/02/13 07:00:17;;;;;;;4.70;1.10;;;0.40;99.90;;;;;;6145510;23;20009;-74
2022/02/13 07:02:44;;;;;;;4.28;1.00;;;0.30;99.90;;;;;;6143650;23;20014;-76
2022/02/13 07:05:10;;;;;;;2.22;0.88;;;0.30;99.90;;;;;;6146230;23;20064;-73
2022/02/13 07:07:36;;;;;;;2.13;0.68;;;0.40;99.90;;;;;;6144009;23;20394;-72
2022/02/13 07:10:04;;;;;;;3.83;1.30;;;0.40;99.90;;;;;;6120379;23;20017;-75
2022/02/13 07:12:29;;;;;;;2.00;0.50;;;0.40;99.90;;;;;;6120456;23;20013;-74
2022/02/13 07:14:55;;;;;;;1.90;0.60;;;0.30;99.90;;;;;;6146592;23;20020;-73
2022/02/13 07:17:20;;;;;;;2.10;0.70;;;0.30;99.90;;;;;;6144777;23;20040;-73
2022/02/13 07:19:46;;;;;;;2.72;0.50;;;0.40;99.90;;;;;;6145394;23;20006;-75
2022/02/13 07:22:11;;;;;;;3.03;0.63;;;0.40;99.90;;;;;;6122467;23;20085;-81
2022/02/13 07:24:37;;;;;;;3.78;1.17;;;0.50;99.90;;;;;;6146408;23;20025;-79
2022/02/13 07:27:04;;;;;;;4.03;0.82;;;0.70;99.90;;;;;;6146108;23;20320;-80
2022/02/13 07:29:30;;;;;;;3.90;0.80;;;0.70;99.90;;;;;;6148584;23;20013;-77
2022/02/13 07:31:57;;;;;;;2.35;0.70;;;0.60;99.90;;;;;;6147384;23;20363;-76
2022/02/13 07:34:22;;;;;;;3.28;1.17;;;0.70;99.90;;;;;;6124144;23;20010;-78
2022/02/13 07:36:52;;;;;;;5.95;1.25;;;0.80;99.90;;;;;;6148504;23;20304;-81
2022/02/13 07:39:19;;;;;;;;;;;0.90;99.90;;;;;;6148630;23;20009;-77
2022/02/13 07:41:45;;;;;;;4.53;1.02;;;0.90;99.90;;;;;;6146927;23;20351;-74
2022/02/13 07:44:11;;;;;;;4.35;0.95;;;1.00;99.90;;;;;;6144761;23;20013;-79
2022/02/13 07:46:37;;;;;;;2.20;0.90;;;1.10;99.90;;;;;;6119416;23;20080;-73
2022/02/13 07:49:05;;;;;;;2.97;1.10;;;1.00;99.90;;;;;;6144101;23;20026;-75
2022/02/13 07:51:34;;;;;;;3.85;1.30;;;1.10;99.90;;;;;;6146215;23;20068;-73
2022/02/13 07:54:00;;;;;;;4.00;0.80;;;1.20;99.90;;;;;;6144019;23;20005;-73
2022/02/13 07:56:26;;;;;;;2.60;0.82;;;1.30;99.90;;;;;;6119962;23;20438;-73
2022/02/13 07:58:52;;;;;;;3.15;0.98;;;1.30;99.90;;;;;;6143756;23;20020;-73
2022/02/13 08:01:21;;;;;;;4.28;1.20;;;1.40;99.90;;;;;;6143847;23;20013;-74
2022/02/13 08:03:47;;;;;;;3.15;1.00;;;1.40;99.90;;;;;;6118706;23;20005;-73
2022/02/13 08:06:15;;;;;;;2.40;1.23;;;1.50;99.90;;;;;;6144228;23;20019;-73
2022/02/13 08:08:40;;;;;;;4.20;1.40;;;1.60;99.90;;;;;;6143300;23;20021;-73
2022/02/13 08:11:06;;;;;;;2.60;1.33;;;1.70;99.90;;;;;;6144502;23;20056;-74
2022/02/13 08:13:33;;;;;;;3.72;1.20;;;1.70;99.90;;;;;;6143394;23;20018;-73
2022/02/13 08:15:58;;;;;;;4.22;1.83;;;1.90;99.90;;;;;;6143567;23;20419;-74
2022/02/13 08:18:24;;;;;;;4.40;1.98;;;2.00;99.90;;;;;;6119903;23;20051;-74
2022/02/13 08:20:54;;;;;;;4.82;1.38;;;2.20;99.90;;;;;;6145907;23;20096;-74
2022/02/13 08:23:20;;;;;;;5.35;1.60;;;2.30;99.90;;;;;;6121337;23;20025;-73
2022/02/13 08:25:48;;;;;;;2.83;1.30;;;2.30;99.90;;;;;;6148152;23;20089;-73
2022/02/13 08:28:14;;;;;;;3.10;1.02;;;2.30;99.90;;;;;;6148159;23;20022;-74
2022/02/13 08:30:41;;;;;;;2.15;0.93;;;2.30;99.90;;;;;;6147021;23;20530;-75
2022/02/13 08:33:07;;;;;;;3.58;1.00;;;2.50;99.90;;;;;;6146669;23;20025;-73
2022/02/13 08:35:33;;;;;;;2.70;1.13;;;2.50;99.90;;;;;;6121642;23;20013;-73
2022/02/13 08:38:00;;;;;;;3.22;1.10;;;2.50;99.90;;;;;;6098277;23;20006;-73
2022/02/13 08:40:27;;;;;;;5.03;1.52;;;2.50;99.90;;;;;;6148296;23;20017;-73
2022/02/13 08:42:57;;;;;;;4.60;1.23;;;2.60;99.90;;;;;;6146681;23;20070;-76
2022/02/13 08:45:22;;;;;;;3.00;0.93;;;2.60;99.90;;;;;;6146739;23;20013;-76
2022/02/13 08:47:48;;;;;;;4.10;1.25;;;2.60;99.90;;;;;;6145857;23;20474;-73
2022/02/13 08:50:14;;;;;;;3.67;0.95;;;2.70;99.90;;;;;;6120768;23;20024;-73
2022/02/13 08:52:39;;;;;;;3.15;0.90;;;2.80;99.90;;;;;;6147802;23;20009;-73
2022/02/13 08:55:07;;;;;;;2.97;0.90;;;2.90;99.90;;;;;;6147803;23;20017;-80
2022/02/13 08:57:33;;;;;;;2.72;0.90;;;2.90;99.90;;;;;;6145699;23;20009;-82
2022/02/13 08:59:59;;;;;;;3.05;1.10;;;3.00;99.90;;;;;;6147846;23;20140;-81
2022/02/13 09:02:24;;;;;;;3.85;1.40;;;3.10;99.90;;;;;;6121957;23;20064;-73
2022/02/13 09:04:50;;;;;;;5.63;1.85;;;3.20;99.90;;;;;;6120969;23;20017;-75
2022/02/13 09:07:15;;;;;;;4.55;1.33;;;3.30;99.90;;;;;;6145125;23;20093;-74
2022/02/13 09:09:43;;;;;;;3.30;1.23;;;3.30;99.90;;;;;;6145368;23;20434;-75
2022/02/13 09:12:09;;;;;;;3.03;1.20;;;3.40;99.90;;;;;;6147026;23;20425;-74
2022/02/13 09:14:36;;;;;;;3.42;1.08;;;3.50;99.90;;;;;;6145282;23;20017;-75
2022/02/13 09:17:01;;;;;;;2.88;0.95;;;3.50;99.90;;;;;;6121915;23;20006;-74
2022/02/13 09:19:28;;;;;;;3.65;1.48;;;3.60;99.90;;;;;;6146637;23;20016;-76
2022/02/13 09:21:54;;;;;;;2.75;1.02;;;3.70;99.90;;;;;;6146730;23;20044;-74
2022/02/13 09:24:21;;;;;;;2.80;1.27;;;3.70;99.90;;;;;;6147617;23;20025;-75
2022/02/13 09:26:47;;;;;;;2.72;1.08;;;3.80;99.90;;;;;;6095902;23;20331;-75
2022/02/13 09:29:13;;;;;;;3.53;1.20;;;3.80;99.90;;;;;;6121205;23;20021;-74
2022/02/13 09:31:38;;;;;;;3.25;1.20;;;4.00;99.90;;;;;;6147500;23;20481;-74
2022/02/13 09:34:04;;;;;;;4.88;1.83;;;4.10;99.90;;;;;;6096217;23;20013;-74
2022/02/13 09:36:29;;;;;;;4.50;1.77;;;4.20;99.90;;;;;;6097380;23;20033;-76
2022/02/13 09:38:55;;;;;;;2.80;1.20;;;4.30;99.90;;;;;;6097531;23;20401;-74
2022/02/13 09:41:21;;;;;;;3.83;1.58;;;4.30;99.90;;;;;;6097464;23;20017;-75
2022/02/13 09:43:47;;;;;;;3.85;1.70;;;4.30;99.90;;;;;;6097292;23;20470;-75
2022/02/13 09:46:14;;;;;;;4.05;1.60;;;4.40;99.90;;;;;;6121914;23;20331;-75
2022/02/13 09:48:41;;;;;;;4.10;1.63;;;4.50;99.90;;;;;;6147328;23;20021;-75
2022/02/13 09:51:07;;;;;;;5.47;1.63;;;4.60;99.90;;;;;;6121478;23;20013;-75
2022/02/13 09:53:36;;;;;;;3.85;1.48;;;4.70;99.90;;;;;;6096850;23;20021;-75
2022/02/13 09:56:06;;;;;;;4.97;1.55;;;4.70;99.90;;;;;;6096212;23;20009;-75
2022/02/13 09:58:33;;;;;;;4.55;1.95;;;4.80;99.90;;;;;;6147446;23;20009;-75
2022/02/13 10:01:02;;;;;;;2.72;1.20;;;4.80;99.90;;;;;;6096540;23;20013;-75
2022/02/13 10:03:37;;;;;;;3.33;1.17;;;4.90;99.90;;;;;;6146847;23;20331;-75
2022/02/13 10:06:12;;;;;;;2.72;0.98;;;5.00;99.90;;;;;;6120788;23;20020;-75
2022/02/13 10:08:42;;;;;;;5.35;2.92;;;5.00;99.90;;;;;;6146790;23;20014;-75
2022/02/13 10:11:15;;;;;;;3.63;1.30;;;5.10;99.90;;;;;;6120654;23;20430;-75
2022/02/13 10:13:58;;;;;;;3.30;1.50;;;5.30;99.90;;;;;;6120921;23;20021;-75
2022/02/13 10:16:25;;;;;;;4.40;2.15;;;5.20;99.90;;;;;;6096684;23;20013;-75
2022/02/13 10:18:53;;;;;;;3.53;1.75;;;5.20;99.90;;;;;;6095732;23;20017;-75
2022/02/13 10:21:38;;;;;;;4.20;2.08;;;5.20;99.90;;;;;;6121130;23;20001;-75
2022/02/13 10:24:22;;;;;;;4.28;1.40;;;5.40;99.90;;;;;;6134896;23;20097;-75
2022/02/13 10:26:57;;;;;;;2.97;1.65;;;5.50;99.90;;;;;;6144472;23;20084;-75
2022/02/13 10:29:28;;;;;;;3.33;1.23;;;5.60;99.90;;;;;;6145497;23;20017;-74
2022/02/13 10:32:19;;;;;;;5.22;1.65;;;5.60;99.90;;;;;;6145191;23;20016;-75
2022/02/13 10:35:15;;;;;;;4.10;2.03;;;5.60;99.90;;;;;;6146431;23;20013;-75
2022/02/13 10:37:54;;;;;;;3.92;2.08;;;5.60;99.90;;;;;;6145284;23;20017;-75
2022/02/13 10:40:24;;;;;;;3.85;2.00;;;5.70;99.90;;;;;;6146484;23;20090;-75
2022/02/13 10:43:01;;;;;;;4.97;2.33;;;5.70;99.90;;;;;;6145588;23;20012;-75
2022/02/13 10:45:28;;;;;;;3.30;1.63;;;5.80;99.90;;;;;;6147580;23;20061;-75
2022/02/13 10:47:58;;;;;;;3.00;1.70;;;5.70;99.90;;;;;;6121083;23;20083;-76
2022/02/13 10:50:24;;;;;;;;;;;5.90;99.90;;;;;;6148326;23;20006;-75
2022/02/13 10:52:53;;;;;;;4.18;2.10;;;5.90;99.90;;;;;;6121044;23;20040;-76
2022/02/13 10:55:19;;;;;;;3.53;1.80;;;6.00;99.90;;;;;;6146866;23;20013;-75
2022/02/13 10:57:45;;;;;;;3.22;1.50;;;6.10;99.90;;;;;;6145240;23;20013;-76
2022/02/13 11:00:13;;;;;;;2.92;1.58;;;6.30;99.90;;;;;;6145931;23;20501;-75
2022/02/13 11:02:39;;;;;;;3.75;1.45;;;6.40;99.90;;;;;;6096758;23;20013;-76
2022/02/13 11:05:08;;;;;;;5.57;2.05;;;6.50;99.90;;;;;;6147012;23;20466;-75
2022/02/13 11:07:38;;;;;;;2.42;0.95;;;6.60;99.90;;;;;;6144895;23;20447;-76
2022/02/13 11:10:08;;;;;;;4.05;1.52;;;6.80;99.90;;;;;;6120522;23;20283;-75
2022/02/13 11:12:34;;;;;;;2.90;1.10;;;6.80;99.90;;;;;;6145944;23;20021;-76
2022/02/13 11:15:18;;;;;;;3.58;1.65;;;6.90;99.90;;;;;;6120786;23;20017;-76
2022/02/13 11:17:46;;;;;;;2.88;1.00;;;6.90;99.90;;;;;;6120040;23;20117;-76
2022/02/13 11:20:17;;;;;;;4.22;1.73;;;7.00;99.90;;;;;;6145193;23;20076;-76
2022/02/13 11:22:47;;;;;;;6.65;1.95;;;7.10;99.90;;;;;;6144268;23;20443;-76
2022/02/13 11:25:13;;;;;;;3.03;1.45;;;7.20;99.90;;;;;;6096132;23;20823;-75
2022/02/13 11:27:59;;;;;;;4.32;1.45;;;7.30;99.90;;;;;;6095377;23;20485;-75
2022/02/13 11:30:45;;;;;;;3.75;2.13;;;7.30;99.90;;;;;;6120083;23;20736;-75
2022/02/13 11:33:22;;;;;;;5.43;2.63;;;7.40;99.90;;;;;;6120362;23;20013;-75
2022/02/13 11:36:03;;;;;;;4.13;2.05;;;7.40;99.90;;;;;;6120269;23;20024;-75
2022/02/13 11:38:52;;;;;;;2.67;1.05;;;7.40;99.90;;;;;;6119426;23;20009;-75
2022/02/13 11:41:39;;;;;;;4.47;1.52;;;7.50;99.90;;;;;;6146461;23;20013;-76
2022/02/13 11:44:04;;;;;;;2.80;1.67;;;7.50;99.90;;;;;;6146260;23;20079;-75
2022/02/13 11:46:30;;;;;;;4.68;1.40;;;7.60;99.90;;;;;;6095154;23;20017;-75
2022/02/13 11:48:58;;;;;;;2.50;1.40;;;7.80;99.90;;;;;;6119597;23;20013;-75
2022/02/13 11:51:45;;;;;;;3.83;1.67;;;7.90;99.90;;;;;;6145954;23;20226;-76
2022/02/13 11:54:44;;;;;;;2.60;1.13;;;8.00;99.90;;;;;;6120307;23;20001;-75
2022/02/13 11:57:19;;;;;;;2.17;1.23;;;8.00;99.90;;;;;;6136118;23;20052;-75
2022/02/13 12:00:00;;;;;;;4.07;0.95;;;8.20;99.90;;;;;;6119971;23;20337;-75
2022/02/13 12:02:31;;;;;;;2.22;1.10;;;8.10;99.90;;;;;;6146818;23;20006;-76
2022/02/13 12:05:11;;;;;;;3.67;1.63;;;8.00;99.90;;;;;;6120456;23;20064;-76
2022/02/13 12:07:43;;;;;;;3.00;1.42;;;8.00;99.90;;;;;;6119942;23;20022;-75
2022/02/13 12:10:11;;;;;;;3.67;2.13;;;8.00;99.90;;;;;;6120203;23;20024;-75
2022/02/13 12:12:38;;;;;;;2.40;1.30;;;8.10;99.90;;;;;;6146349;23;20005;-75
2022/02/13 12:15:04;;;;;;;4.50;1.77;;;8.20;99.90;;;;;;6120397;23;20036;-75
2022/02/13 12:17:30;;;;;;;3.88;1.20;;;8.30;99.90;;;;;;6145944;23;20034;-75
2022/02/13 12:20:17;;;;;;;3.03;1.88;;;8.40;99.90;;;;;;6119993;23;20032;-75
2022/02/13 12:22:44;;;;;;;4.22;1.63;;;8.40;99.90;;;;;;6092731;23;20089;-76
2022/02/13 12:25:10;;;;;;;4.20;1.85;;;8.50;99.90;;;;;;6066865;23;20337;-75
2022/02/13 12:27:39;;;;;;;5.03;2.97;;;8.60;99.90;;;;;;6141420;23;20013;-76
2022/02/13 12:30:08;;;;;;;4.35;2.13;;;8.70;99.90;;;;;;6094495;23;20021;-75
2022/02/13 12:32:36;;;;;;;4.93;1.60;;;8.80;99.90;;;;;;6119260;23;20001;-76
2022/02/13 12:35:03;;;;;;;3.10;1.75;;;8.80;99.90;;;;;;6144567;23;20461;-76
2022/02/13 12:37:56;;;;;;;3.65;1.58;;;8.70;99.90;;;;;;6116932;23;20025;-75
2022/02/13 12:40:28;;;;;;;4.43;2.03;;;8.70;99.90;;;;;;6143945;23;20006;-77
2022/02/13 12:42:57;;;;;;;3.85;2.17;;;8.80;99.90;;;;;;6146526;23;20341;-75
2022/02/13 12:45:28;;;;;;;3.08;1.50;;;8.80;99.90;;;;;;6119801;23;20077;-75
2022/02/13 12:48:02;;;;;;;4.57;2.33;;;8.90;99.90;;;;;;6093695;23;20017;-75
2022/02/13 12:50:33;;;;;;;2.70;1.35;;;8.90;99.90;;;;;;6096565;23;20382;-76
2022/02/13 12:53:01;;;;;;;2.97;1.45;;;9.00;99.90;;;;;;6118659;23;20017;-76
2022/02/13 12:55:27;;;;;;;2.72;1.50;;;8.90;99.90;;;;;;6119586;23;20018;-75
2022/02/13 12:57:58;;;;;;;2.75;1.33;;;8.90;99.90;;;;;;6120118;23;20072;-81
2022/02/13 13:00:26;;;;;;;3.15;1.60;;;9.00;99.90;;;;;;6119142;23;20089;-75